sensor_id;sensor_type;location;lat;lon;timestamp;pressure;altitude;pressure_sealevel;temperature;humidity
22830;BME280;11581;51.250;6.778;2022-07-29T00:01:46;101085.13;;;22.99;35.85
22830;BME280;11581;51.250;6.778;2022-07-29T00:04:13;101082.41;;;22.99;35.73
22830;BME280;11581;51.250;6.778;2022-07-29T00:06:43;101043.44;;;22.74;36.15
22830;BME280;11581;51.250;6.778;2022-07-29T00:09:10;101075.09;;;23.00;35.84
22830;BME280;11581;51.250;6.778;2022-07-29T00:11:37;101079.69;;;22.99;35.94
22830;BME280;11581;51.250;6.778;2022-07-29T00:14:05;101053.78;;;22.90;36.00
22830;BME280;11581;51.250;6.778;2022-07-29T00:16:33;101075.31;;;22.98;35.98
22830;BME280;11581;51.250;6.778;2022-07-29T00:19:00;101055.31;;;22.86;35.94
22830;BME280;11581;51.250;6.778;2022-07-29T00:21:27;101052.75;;;22.91;35.96
22830;BME280;11581;51.250;6.778;2022-07-29T00:23:56;101062.38;;;22.94;36.26
22830;BME280;11581;51.250;6.778;2022-07-29T00:26:22;101055.44;;;22.91;36.18
22830;BME280;11581;51.250;6.778;2022-07-29T00:28:49;101026.53;;;22.72;36.29
22830;BME280;11581;51.250;6.778;2022-07-29T00:31:16;101050.00;;;22.91;36.24
22830;BME280;11581;51.250;6.778;2022-07-29T00:33:43;101042.91;;;22.90;36.25
22830;BME280;11581;51.250;6.778;2022-07-29T00:36:10;101029.53;;;22.89;36.20
22830;BME280;11581;51.250;6.778;2022-07-29T00:38:38;101042.97;;;22.84;36.32
22830;BME280;11581;51.250;6.778;2022-07-29T00:41:11;101028.09;;;22.86;36.42
22830;BME280;11581;51.250;6.778;2022-07-29T00:43:38;101022.66;;;22.86;36.29
22830;BME280;11581;51.250;6.778;2022-07-29T00:46:05;101020.38;;;22.83;36.21
22830;BME280;11581;51.250;6.778;2022-07-29T00:48:32;101003.22;;;22.83;36.39
22830;BME280;11581;51.250;6.778;2022-07-29T00:51:01;100998.00;;;22.81;36.47
22830;BME280;11581;51.250;6.778;2022-07-29T00:53:29;100990.72;;;22.75;36.49
22830;BME280;11581;51.250;6.778;2022-07-29T00:56:00;100994.06;;;22.77;36.61
22830;BME280;11581;51.250;6.778;2022-07-29T00:58:28;101002.44;;;22.76;36.65
22830;BME280;11581;51.250;6.778;2022-07-29T01:00:55;100992.09;;;22.66;36.34
22830;BME280;11581;51.250;6.778;2022-07-29T01:03:24;101001.00;;;22.73;36.49
22830;BME280;11581;51.250;6.778;2022-07-29T01:05:52;101001.25;;;22.72;36.65
22830;BME280;11581;51.250;6.778;2022-07-29T01:08:20;100996.66;;;22.66;36.52
22830;BME280;11581;51.250;6.778;2022-07-29T01:10:49;101005.22;;;22.69;36.67
22830;BME280;11581;51.250;6.778;2022-07-29T01:13:17;101007.94;;;22.69;36.64
22830;BME280;11581;51.250;6.778;2022-07-29T01:15:49;100980.78;;;22.69;37.23
22830;BME280;11581;51.250;6.778;2022-07-29T01:18:23;100950.34;;;22.48;37.17
22830;BME280;11581;51.250;6.778;2022-07-29T01:21:14;100980.78;;;22.69;37.20
22830;BME280;11581;51.250;6.778;2022-07-29T01:24:11;100929.59;;;22.29;36.95
22830;BME280;11581;51.250;6.778;2022-07-29T01:26:45;100996.88;;;22.71;36.75
22830;BME280;11581;51.250;6.778;2022-07-29T01:29:20;100986.03;;;22.64;37.03
22830;BME280;11581;51.250;6.778;2022-07-29T01:31:55;100994.38;;;22.69;37.25
22830;BME280;11581;51.250;6.778;2022-07-29T01:34:27;100973.31;;;22.58;37.23
22830;BME280;11581;51.250;6.778;2022-07-29T01:37:06;100983.53;;;22.63;37.54
22830;BME280;11581;51.250;6.778;2022-07-29T01:39:37;100988.94;;;22.69;37.34
22830;BME280;11581;51.250;6.778;2022-07-29T01:42:11;100989.81;;;22.63;37.43
22830;BME280;11581;51.250;6.778;2022-07-29T01:44:47;100999.16;;;22.67;37.55
22830;BME280;11581;51.250;6.778;2022-07-29T01:47:19;100954.56;;;22.44;37.33
22830;BME280;11581;51.250;6.778;2022-07-29T01:49:51;100982.53;;;22.57;37.60
22830;BME280;11581;51.250;6.778;2022-07-29T01:52:23;100978.75;;;22.58;37.53
22830;BME280;11581;51.250;6.778;2022-07-29T01:54:55;100991.25;;;22.66;37.30
22830;BME280;11581;51.250;6.778;2022-07-29T01:57:27;100993.13;;;22.65;37.53
22830;BME280;11581;51.250;6.778;2022-07-29T01:59:57;100986.03;;;22.64;37.50
22830;BME280;11581;51.250;6.778;2022-07-29T02:02:26;100976.22;;;22.63;37.35
22830;BME280;11581;51.250;6.778;2022-07-29T02:04:56;100966.03;;;22.52;37.52
22830;BME280;11581;51.250;6.778;2022-07-29T02:07:24;100976.66;;;22.60;37.53
22830;BME280;11581;51.250;6.778;2022-07-29T02:09:55;100953.75;;;22.43;37.38
22830;BME280;11581;51.250;6.778;2022-07-29T02:12:25;100981.25;;;22.60;37.42
22830;BME280;11581;51.250;6.778;2022-07-29T02:14:59;100970.88;;;22.50;37.64
22830;BME280;11581;51.250;6.778;2022-07-29T02:17:31;100850.94;;;21.78;37.53
22830;BME280;11581;51.250;6.778;2022-07-29T02:20:02;100995.47;;;22.62;37.78
22830;BME280;11581;51.250;6.778;2022-07-29T02:22:31;100997.31;;;22.61;37.66
22830;BME280;11581;51.250;6.778;2022-07-29T02:25:00;101010.91;;;22.61;37.39
22830;BME280;11581;51.250;6.778;2022-07-29T02:27:29;101015.50;;;22.61;37.36
22830;BME280;11581;51.250;6.778;2022-07-29T02:30:00;101023.88;;;22.59;37.77
22830;BME280;11581;51.250;6.778;2022-07-29T02:32:29;101022.84;;;22.60;37.59
22830;BME280;11581;51.250;6.778;2022-07-29T02:35:00;101017.22;;;22.55;37.69
22830;BME280;11581;51.250;6.778;2022-07-29T02:37:28;101013.25;;;22.58;37.69
22830;BME280;11581;51.250;6.778;2022-07-29T02:39:57;101000.09;;;22.48;37.62
22830;BME280;11581;51.250;6.778;2022-07-29T02:42:26;100979.31;;;22.29;37.62
22830;BME280;11581;51.250;6.778;2022-07-29T02:44:54;101014.75;;;22.47;37.52
22830;BME280;11581;51.250;6.778;2022-07-29T02:47:31;101003.13;;;22.34;38.06
22830;BME280;11581;51.250;6.778;2022-07-29T02:50:06;100968.75;;;22.15;38.12
22830;BME280;11581;51.250;6.778;2022-07-29T02:52:40;100871.72;;;21.53;38.05
22830;BME280;11581;51.250;6.778;2022-07-29T02:55:15;100996.47;;;22.23;38.19
22830;BME280;11581;51.250;6.778;2022-07-29T02:57:47;100934.00;;;21.85;38.19
22830;BME280;11581;51.250;6.778;2022-07-29T03:00:16;101013.84;;;22.22;37.83
22830;BME280;11581;51.250;6.778;2022-07-29T03:02:50;100979.50;;;21.97;38.44
22830;BME280;11581;51.250;6.778;2022-07-29T03:05:20;101033.72;;;22.16;38.30
22830;BME280;11581;51.250;6.778;2022-07-29T03:07:54;101033.09;;;22.14;38.46
22830;BME280;11581;51.250;6.778;2022-07-29T03:10:23;101027.28;;;22.11;38.27
22830;BME280;11581;51.250;6.778;2022-07-29T03:12:51;101027.47;;;22.09;38.40
22830;BME280;11581;51.250;6.778;2022-07-29T03:15:19;101023.75;;;21.97;38.39
22830;BME280;11581;51.250;6.778;2022-07-29T03:17:48;101052.78;;;22.03;38.48
22830;BME280;11581;51.250;6.778;2022-07-29T03:20:15;101035.94;;;21.81;38.57
22830;BME280;11581;51.250;6.778;2022-07-29T03:22:43;101074.94;;;22.00;38.56
22830;BME280;11581;51.250;6.778;2022-07-29T03:25:14;101078.91;;;21.98;38.65
22830;BME280;11581;51.250;6.778;2022-07-29T03:27:42;101075.59;;;21.89;38.62
22830;BME280;11581;51.250;6.778;2022-07-29T03:30:11;101098.56;;;21.93;38.63
22830;BME280;11581;51.250;6.778;2022-07-29T03:32:38;101113.41;;;21.90;38.83
22830;BME280;11581;51.250;6.778;2022-07-29T03:35:08;101110.91;;;21.89;40.34
22830;BME280;11581;51.250;6.778;2022-07-29T03:37:36;101103.19;;;21.86;41.05
22830;BME280;11581;51.250;6.778;2022-07-29T03:40:05;101107.38;;;21.82;43.02
22830;BME280;11581;51.250;6.778;2022-07-29T03:42:35;101109.25;;;21.75;42.90
22830;BME280;11581;51.250;6.778;2022-07-29T03:45:07;101093.78;;;21.56;43.67
22830;BME280;11581;51.250;6.778;2022-07-29T03:47:38;101067.72;;;21.35;44.32
22830;BME280;11581;51.250;6.778;2022-07-29T03:50:11;101077.94;;;21.20;45.34
22830;BME280;11581;51.250;6.778;2022-07-29T03:52:40;101063.34;;;21.02;45.01
22830;BME280;11581;51.250;6.778;2022-07-29T03:55:08;101088.16;;;20.99;45.62
22830;BME280;11581;51.250;6.778;2022-07-29T03:57:36;101033.66;;;20.68;46.45
22830;BME280;11581;51.250;6.778;2022-07-29T04:00:05;101035.53;;;20.61;46.40
22830;BME280;11581;51.250;6.778;2022-07-29T04:05:00;101039.00;;;20.35;47.20
22830;BME280;11581;51.250;6.778;2022-07-29T04:07:29;101023.53;;;20.16;48.88
22830;BME280;11581;51.250;6.778;2022-07-29T04:09:56;101021.81;;;20.09;48.87
22830;BME280;11581;51.250;6.778;2022-07-29T04:12:23;101010.28;;;19.93;49.24
22830;BME280;11581;51.250;6.778;2022-07-29T04:14:50;101005.19;;;19.77;49.74
22830;BME280;11581;51.250;6.778;2022-07-29T04:17:18;100995.09;;;19.58;50.02
22830;BME280;11581;51.250;6.778;2022-07-29T04:19:48;101001.22;;;19.39;50.81
22830;BME280;11581;51.250;6.778;2022-07-29T04:22:14;101034.59;;;19.25;51.36
22830;BME280;11581;51.250;6.778;2022-07-29T04:24:43;101075.53;;;19.22;51.87
22830;BME280;11581;51.250;6.778;2022-07-29T04:27:10;101070.81;;;19.03;51.28
22830;BME280;11581;51.250;6.778;2022-07-29T04:29:37;101069.69;;;18.91;51.67
22830;BME280;11581;51.250;6.778;2022-07-29T04:32:04;101066.06;;;18.84;52.28
22830;BME280;11581;51.250;6.778;2022-07-29T04:34:31;101069.13;;;18.81;51.77
22830;BME280;11581;51.250;6.778;2022-07-29T04:36:58;101070.31;;;18.72;51.95
22830;BME280;11581;51.250;6.778;2022-07-29T04:39:25;101077.31;;;18.67;52.11
22830;BME280;11581;51.250;6.778;2022-07-29T04:41:53;101074.16;;;18.63;53.65
22830;BME280;11581;51.250;6.778;2022-07-29T04:44:21;101058.97;;;18.62;52.99
22830;BME280;11581;51.250;6.778;2022-07-29T04:46:49;101059.19;;;18.61;53.60
22830;BME280;11581;51.250;6.778;2022-07-29T04:49:16;101061.66;;;18.62;53.75
22830;BME280;11581;51.250;6.778;2022-07-29T04:51:43;101003.09;;;18.27;54.26
22830;BME280;11581;51.250;6.778;2022-07-29T04:54:11;101053.97;;;18.59;54.48
22830;BME280;11581;51.250;6.778;2022-07-29T04:56:38;101056.72;;;18.66;54.53
22830;BME280;11581;51.250;6.778;2022-07-29T04:59:06;101055.50;;;18.68;55.65
22830;BME280;11581;51.250;6.778;2022-07-29T05:01:34;100923.19;;;17.91;54.96
22830;BME280;11581;51.250;6.778;2022-07-29T05:04:03;101025.53;;;18.63;54.89
22830;BME280;11581;51.250;6.778;2022-07-29T05:06:31;101029.31;;;18.69;55.26
22830;BME280;11581;51.250;6.778;2022-07-29T05:09:01;100999.34;;;18.64;56.40
22830;BME280;11581;51.250;6.778;2022-07-29T05:11:29;101033.19;;;18.81;56.04
22830;BME280;11581;51.250;6.778;2022-07-29T05:13:56;100992.66;;;18.60;55.33
22830;BME280;11581;51.250;6.778;2022-07-29T05:16:24;101012.28;;;18.68;55.82
22830;BME280;11581;51.250;6.778;2022-07-29T05:18:55;101032.41;;;18.87;54.89
22830;BME280;11581;51.250;6.778;2022-07-29T05:21:22;101034.09;;;18.88;54.99
22830;BME280;11581;51.250;6.778;2022-07-29T05:23:49;100963.03;;;18.45;55.16
22830;BME280;11581;51.250;6.778;2022-07-29T05:26:16;101032.03;;;18.90;55.04
22830;BME280;11581;51.250;6.778;2022-07-29T05:28:43;100995.25;;;18.68;55.32
22830;BME280;11581;51.250;6.778;2022-07-29T05:31:10;101032.91;;;18.97;55.90
22830;BME280;11581;51.250;6.778;2022-07-29T05:33:41;101038.75;;;19.00;56.86
22830;BME280;11581;51.250;6.778;2022-07-29T05:36:08;101016.63;;;18.90;56.16
22830;BME280;11581;51.250;6.778;2022-07-29T05:38:38;100990.72;;;18.75;56.05
22830;BME280;11581;51.250;6.778;2022-07-29T05:41:06;101052.38;;;19.13;55.92
22830;BME280;11581;51.250;6.778;2022-07-29T05:43:33;101070.91;;;19.16;55.49
22830;BME280;11581;51.250;6.778;2022-07-29T05:46:00;101056.00;;;19.20;55.38
22830;BME280;11581;51.250;6.778;2022-07-29T05:48:27;101038.75;;;19.00;55.81
22830;BME280;11581;51.250;6.778;2022-07-29T05:50:55;101058.19;;;19.31;56.16
22830;BME280;11581;51.250;6.778;2022-07-29T05:53:23;101049.28;;;19.37;55.37
22830;BME280;11581;51.250;6.778;2022-07-29T05:55:50;101061.00;;;19.44;55.18
22830;BME280;11581;51.250;6.778;2022-07-29T05:58:17;101060.81;;;19.52;55.33
22830;BME280;11581;51.250;6.778;2022-07-29T06:00:45;101014.53;;;19.34;55.82
22830;BME280;11581;51.250;6.778;2022-07-29T06:03:13;101063.88;;;19.70;55.58
22830;BME280;11581;51.250;6.778;2022-07-29T06:05:40;101056.41;;;19.72;55.17
22830;BME280;11581;51.250;6.778;2022-07-29T06:08:09;101082.31;;;19.94;54.92
22830;BME280;11581;51.250;6.778;2022-07-29T06:10:36;101074.28;;;20.08;54.22
22830;BME280;11581;51.250;6.778;2022-07-29T06:13:03;101075.41;;;20.20;54.00
22830;BME280;11581;51.250;6.778;2022-07-29T06:15:31;101046.16;;;20.09;53.06
22830;BME280;11581;51.250;6.778;2022-07-29T06:17:59;101082.16;;;20.43;52.18
22830;BME280;11581;51.250;6.778;2022-07-29T06:20:26;101063.81;;;20.39;52.33
22830;BME280;11581;51.250;6.778;2022-07-29T06:22:54;101081.63;;;20.67;52.15
22830;BME280;11581;51.250;6.778;2022-07-29T06:25:23;101082.25;;;20.76;51.73
22830;BME280;11581;51.250;6.778;2022-07-29T06:27:50;101091.84;;;20.85;51.35
22830;BME280;11581;51.250;6.778;2022-07-29T06:30:17;101012.28;;;20.19;51.07
22830;BME280;11581;51.250;6.778;2022-07-29T06:32:45;101102.75;;;20.98;50.50
22830;BME280;11581;51.250;6.778;2022-07-29T06:35:13;101087.06;;;20.87;51.00
22830;BME280;11581;51.250;6.778;2022-07-29T06:37:40;101072.66;;;20.86;50.91
22830;BME280;11581;51.250;6.778;2022-07-29T06:40:08;100987.97;;;20.39;51.10
22830;BME280;11581;51.250;6.778;2022-07-29T06:42:54;101125.53;;;21.16;51.34
22830;BME280;11581;51.250;6.778;2022-07-29T06:45:21;100987.03;;;20.12;50.69
22830;BME280;11581;51.250;6.778;2022-07-29T06:47:51;101073.56;;;21.00;50.67
22830;BME280;11581;51.250;6.778;2022-07-29T06:50:20;101117.41;;;21.29;50.93
22830;BME280;11581;51.250;6.778;2022-07-29T06:52:49;101123.22;;;21.33;51.27
22830;BME280;11581;51.250;6.778;2022-07-29T06:55:16;101105.06;;;21.27;50.72
22830;BME280;11581;51.250;6.778;2022-07-29T06:57:44;101100.28;;;21.29;50.66
22830;BME280;11581;51.250;6.778;2022-07-29T07:00:14;101043.94;;;20.98;50.56
22830;BME280;11581;51.250;6.778;2022-07-29T07:02:43;101080.66;;;21.27;50.30
22830;BME280;11581;51.250;6.778;2022-07-29T07:05:10;101127.41;;;21.55;50.61
22830;BME280;11581;51.250;6.778;2022-07-29T07:07:37;101130.34;;;21.60;50.63
22830;BME280;11581;51.250;6.778;2022-07-29T07:10:05;101089.84;;;21.39;50.82
22830;BME280;11581;51.250;6.778;2022-07-29T07:12:33;101139.47;;;21.72;50.76
22830;BME280;11581;51.250;6.778;2022-07-29T07:15:00;101138.47;;;21.79;51.04
22830;BME280;11581;51.250;6.778;2022-07-29T07:17:28;101151.00;;;21.87;51.28
22830;BME280;11581;51.250;6.778;2022-07-29T07:19:55;101064.81;;;21.50;51.14
22830;BME280;11581;51.250;6.778;2022-07-29T07:22:22;101130.31;;;21.99;50.83
22830;BME280;11581;51.250;6.778;2022-07-29T07:24:50;101139.91;;;22.08;51.17
22830;BME280;11581;51.250;6.778;2022-07-29T07:27:17;101035.13;;;21.55;50.78
22830;BME280;11581;51.250;6.778;2022-07-29T07:29:44;100997.16;;;21.42;50.60
22830;BME280;11581;51.250;6.778;2022-07-29T07:32:12;101084.34;;;21.98;50.80
22830;BME280;11581;51.250;6.778;2022-07-29T07:34:44;101111.66;;;22.16;51.24
22830;BME280;11581;51.250;6.778;2022-07-29T07:37:11;101089.75;;;22.04;50.99
22830;BME280;11581;51.250;6.778;2022-07-29T07:39:40;101101.00;;;22.14;51.48
22830;BME280;11581;51.250;6.778;2022-07-29T07:42:07;101138.97;;;22.40;51.55
22830;BME280;11581;51.250;6.778;2022-07-29T07:44:35;101138.53;;;22.43;50.55
22830;BME280;11581;51.250;6.778;2022-07-29T07:47:03;101107.66;;;22.25;50.55
22830;BME280;11581;51.250;6.778;2022-07-29T07:49:31;100765.22;;;20.24;50.69
22830;BME280;11581;51.250;6.778;2022-07-29T07:52:00;101135.59;;;22.51;51.23
22830;BME280;11581;51.250;6.778;2022-07-29T07:54:27;101132.66;;;22.53;50.84
22830;BME280;11581;51.250;6.778;2022-07-29T07:56:54;101128.06;;;22.53;50.84
22830;BME280;11581;51.250;6.778;2022-07-29T07:59:21;101063.44;;;22.11;50.95
22830;BME280;11581;51.250;6.778;2022-07-29T08:01:48;101087.38;;;22.27;50.64
22830;BME280;11581;51.250;6.778;2022-07-29T08:04:15;101128.88;;;22.54;50.60
22830;BME280;11581;51.250;6.778;2022-07-29T08:06:42;101091.13;;;22.26;50.79
22830;BME280;11581;51.250;6.778;2022-07-29T08:09:11;101094.91;;;22.25;51.03
22830;BME280;11581;51.250;6.778;2022-07-29T08:11:39;101124.94;;;22.43;50.79
22830;BME280;11581;51.250;6.778;2022-07-29T08:14:06;101132.91;;;22.38;50.81
22830;BME280;11581;51.250;6.778;2022-07-29T08:16:33;101136.47;;;22.32;50.84
22830;BME280;11581;51.250;6.778;2022-07-29T08:19:00;101128.16;;;22.27;50.95
22830;BME280;11581;51.250;6.778;2022-07-29T08:21:30;101095.81;;;21.99;51.52
22830;BME280;11581;51.250;6.778;2022-07-29T08:23:57;101133.16;;;22.17;51.20
22830;BME280;11581;51.250;6.778;2022-07-29T08:26:39;101123.59;;;22.08;51.51
22830;BME280;11581;51.250;6.778;2022-07-29T08:29:06;101112.09;;;21.99;50.92
22830;BME280;11581;51.250;6.778;2022-07-29T08:31:33;101113.63;;;21.89;51.58
22830;BME280;11581;51.250;6.778;2022-07-29T08:34:01;101108.19;;;21.69;51.97
22830;BME280;11581;51.250;6.778;2022-07-29T08:36:29;101129.09;;;21.69;51.95
22830;BME280;11581;51.250;6.778;2022-07-29T08:38:57;101139.09;;;21.62;52.28
22830;BME280;11581;51.250;6.778;2022-07-29T08:41:25;101135.53;;;21.55;52.57
22830;BME280;11581;51.250;6.778;2022-07-29T08:43:55;101131.59;;;21.51;53.77
22830;BME280;11581;51.250;6.778;2022-07-29T08:46:22;101141.19;;;21.47;53.28
22830;BME280;11581;51.250;6.778;2022-07-29T08:48:50;101109.47;;;21.28;53.77
22830;BME280;11581;51.250;6.778;2022-07-29T08:51:19;101111.97;;;21.36;54.09
22830;BME280;11581;51.250;6.778;2022-07-29T08:53:48;101125.94;;;21.46;54.59
22830;BME280;11581;51.250;6.778;2022-07-29T08:56:18;101077.31;;;21.18;55.65
22830;BME280;11581;51.250;6.778;2022-07-29T08:58:48;101121.16;;;21.48;54.90
22830;BME280;11581;51.250;6.778;2022-07-29T09:01:21;101123.44;;;21.51;55.91
22830;BME280;11581;51.250;6.778;2022-07-29T09:03:49;101101.94;;;21.43;54.63
22830;BME280;11581;51.250;6.778;2022-07-29T09:06:18;101123.22;;;21.59;54.68
22830;BME280;11581;51.250;6.778;2022-07-29T09:08:48;101076.06;;;21.40;54.71
22830;BME280;11581;51.250;6.778;2022-07-29T09:11:16;101111.09;;;21.68;55.12
22830;BME280;11581;51.250;6.778;2022-07-29T09:13:45;101124.25;;;21.71;54.73
22830;BME280;11581;51.250;6.778;2022-07-29T09:16:15;101097.53;;;21.68;54.58
22830;BME280;11581;51.250;6.778;2022-07-29T09:18:45;101053.72;;;21.45;55.22
22830;BME280;11581;51.250;6.778;2022-07-29T09:21:15;101127.59;;;21.92;55.01
22830;BME280;11581;51.250;6.778;2022-07-29T09:24:04;101127.34;;;22.07;54.43
22830;BME280;11581;51.250;6.778;2022-07-29T09:26:33;101137.75;;;22.23;54.33
22830;BME280;11581;51.250;6.778;2022-07-29T09:29:08;101133.91;;;22.44;54.23
22830;BME280;11581;51.250;6.778;2022-07-29T09:31:37;101134.47;;;22.65;53.38
22830;BME280;11581;51.250;6.778;2022-07-29T09:34:07;101105.56;;;22.77;52.99
22830;BME280;11581;51.250;6.778;2022-07-29T09:36:41;101129.41;;;23.06;52.81
22830;BME280;11581;51.250;6.778;2022-07-29T09:39:10;101128.03;;;23.28;52.67
22830;BME280;11581;51.250;6.778;2022-07-29T09:41:46;101134.16;;;23.48;51.56
22830;BME280;11581;51.250;6.778;2022-07-29T09:44:15;101137.31;;;23.70;51.06
22830;BME280;11581;51.250;6.778;2022-07-29T09:47:01;100994.75;;;22.97;50.19
22830;BME280;11581;51.250;6.778;2022-07-29T09:49:34;101141.81;;;24.07;49.24
22830;BME280;11581;51.250;6.778;2022-07-29T09:52:08;101134.78;;;24.18;48.97
22830;BME280;11581;51.250;6.778;2022-07-29T09:54:36;101129.84;;;24.26;48.62
22830;BME280;11581;51.250;6.778;2022-07-29T09:57:06;101082.78;;;24.01;48.04
22830;BME280;11581;51.250;6.778;2022-07-29T09:59:35;101098.13;;;24.14;48.19
22830;BME280;11581;51.250;6.778;2022-07-29T10:02:11;101135.38;;;24.38;48.00
22830;BME280;11581;51.250;6.778;2022-07-29T10:04:41;101089.59;;;24.10;48.37
22830;BME280;11581;51.250;6.778;2022-07-29T10:07:09;101136.13;;;24.45;47.94
22830;BME280;11581;51.250;6.778;2022-07-29T10:09:37;101123.84;;;24.36;48.48
22830;BME280;11581;51.250;6.778;2022-07-29T10:12:06;101117.81;;;24.34;48.43
22830;BME280;11581;51.250;6.778;2022-07-29T10:14:35;101094.25;;;24.39;48.10
22830;BME280;11581;51.250;6.778;2022-07-29T10:17:04;101149.88;;;24.86;47.44
22830;BME280;11581;51.250;6.778;2022-07-29T10:19:35;101019.16;;;24.25;46.92
22830;BME280;11581;51.250;6.778;2022-07-29T10:22:05;101154.28;;;25.28;46.63
22830;BME280;11581;51.250;6.778;2022-07-29T10:24:36;101024.59;;;24.73;46.73
22830;BME280;11581;51.250;6.778;2022-07-29T10:27:05;101147.97;;;25.80;46.24
22830;BME280;11581;51.250;6.778;2022-07-29T10:29:33;101125.03;;;25.81;45.46
22830;BME280;11581;51.250;6.778;2022-07-29T10:32:09;101120.91;;;26.13;45.24
22830;BME280;11581;51.250;6.778;2022-07-29T10:34:55;101146.25;;;26.48;43.45
22830;BME280;11581;51.250;6.778;2022-07-29T10:37:31;101146.69;;;26.68;43.19
22830;BME280;11581;51.250;6.778;2022-07-29T10:40:08;101165.91;;;26.85;42.29
22830;BME280;11581;51.250;6.778;2022-07-29T10:42:52;101148.97;;;26.99;42.43
22830;BME280;11581;51.250;6.778;2022-07-29T10:45:20;101064.31;;;26.65;42.10
22830;BME280;11581;51.250;6.778;2022-07-29T10:48:03;101075.63;;;26.85;40.36
22830;BME280;11581;51.250;6.778;2022-07-29T10:50:52;101091.06;;;27.07;39.79
22830;BME280;11581;51.250;6.778;2022-07-29T10:53:22;101151.06;;;27.53;40.41
22830;BME280;11581;51.250;6.778;2022-07-29T10:55:51;101045.44;;;26.96;39.70
22830;BME280;11581;51.250;6.778;2022-07-29T10:58:19;101151.53;;;27.67;39.28
22830;BME280;11581;51.250;6.778;2022-07-29T11:00:49;101105.72;;;27.46;39.27
22830;BME280;11581;51.250;6.778;2022-07-29T11:03:45;101146.56;;;27.80;39.06
22830;BME280;11581;51.250;6.778;2022-07-29T11:06:14;101105.56;;;27.52;39.38
22830;BME280;11581;51.250;6.778;2022-07-29T11:08:42;101149.88;;;27.99;38.39
22830;BME280;11581;51.250;6.778;2022-07-29T11:11:31;101090.00;;;27.74;37.58
22830;BME280;11581;51.250;6.778;2022-07-29T11:13:59;101146.66;;;28.24;37.34
22830;BME280;11581;51.250;6.778;2022-07-29T11:17:01;101155.75;;;28.46;37.10
22830;BME280;11581;51.250;6.778;2022-07-29T11:19:29;100919.53;;;27.29;36.65
22830;BME280;11581;51.250;6.778;2022-07-29T11:21:56;101145.28;;;28.86;36.75
22830;BME280;11581;51.250;6.778;2022-07-29T11:24:27;101146.66;;;29.10;35.39
22830;BME280;11581;51.250;6.778;2022-07-29T11:27:11;101111.06;;;29.20;34.53
22830;BME280;11581;51.250;6.778;2022-07-29T11:29:48;101153.84;;;29.74;34.60
22830;BME280;11581;51.250;6.778;2022-07-29T11:32:17;101116.03;;;29.91;34.74
22830;BME280;11581;51.250;6.778;2022-07-29T11:34:46;101157.09;;;30.54;35.40
22830;BME280;11581;51.250;6.778;2022-07-29T11:37:21;101142.72;;;31.04;33.29
22830;BME280;11581;51.250;6.778;2022-07-29T11:40:13;101143.59;;;31.59;33.53
22830;BME280;11581;51.250;6.778;2022-07-29T11:42:50;100976.34;;;31.00;33.11
22830;BME280;11581;51.250;6.778;2022-07-29T11:45:26;101144.56;;;32.49;32.24
22830;BME280;11581;51.250;6.778;2022-07-29T11:47:58;101049.09;;;32.28;31.46
22830;BME280;11581;51.250;6.778;2022-07-29T11:50:29;101143.09;;;33.15;30.30
22830;BME280;11581;51.250;6.778;2022-07-29T11:52:57;101124.72;;;33.34;30.75
22830;BME280;11581;51.250;6.778;2022-07-29T11:55:30;101146.06;;;33.62;29.40
22830;BME280;11581;51.250;6.778;2022-07-29T11:58:02;101076.41;;;33.60;29.83
22830;BME280;11581;51.250;6.778;2022-07-29T12:00:32;101135.53;;;34.21;29.27
22830;BME280;11581;51.250;6.778;2022-07-29T12:03:02;101044.38;;;33.82;28.90
22830;BME280;11581;51.250;6.778;2022-07-29T12:05:46;101144.56;;;34.74;28.52
22830;BME280;11581;51.250;6.778;2022-07-29T12:08:15;101100.56;;;34.72;28.92
22830;BME280;11581;51.250;6.778;2022-07-29T12:10:46;101143.63;;;35.20;27.95
22830;BME280;11581;51.250;6.778;2022-07-29T12:13:18;101117.56;;;35.21;27.97
22830;BME280;11581;51.250;6.778;2022-07-29T12:15:52;101143.16;;;35.50;26.34
22830;BME280;11581;51.250;6.778;2022-07-29T12:18:20;101077.06;;;35.07;27.11
22830;BME280;11581;51.250;6.778;2022-07-29T12:20:48;101148.22;;;35.48;26.12
22830;BME280;11581;51.250;6.778;2022-07-29T12:23:23;101115.41;;;35.18;26.42
22830;BME280;11581;51.250;6.778;2022-07-29T12:25:51;101076.16;;;34.74;26.05
22830;BME280;11581;51.250;6.778;2022-07-29T12:28:19;101174.28;;;35.10;26.29
22830;BME280;11581;51.250;6.778;2022-07-29T12:30:48;101038.88;;;34.06;26.42
22830;BME280;11581;51.250;6.778;2022-07-29T12:33:18;101146.06;;;34.66;26.36
22830;BME280;11581;51.250;6.778;2022-07-29T12:35:47;101129.41;;;34.24;27.00
22830;BME280;11581;51.250;6.778;2022-07-29T12:38:16;101149.06;;;34.23;26.75
22830;BME280;11581;51.250;6.778;2022-07-29T12:40:45;101083.31;;;33.62;27.11
22830;BME280;11581;51.250;6.778;2022-07-29T12:43:16;101144.22;;;33.81;27.17
22830;BME280;11581;51.250;6.778;2022-07-29T12:45:45;101043.41;;;33.06;27.97
22830;BME280;11581;51.250;6.778;2022-07-29T12:48:13;101134.41;;;33.70;28.50
22830;BME280;11581;51.250;6.778;2022-07-29T12:50:54;101135.69;;;33.77;28.13
22830;BME280;11581;51.250;6.778;2022-07-29T12:53:22;101123.22;;;33.80;28.24
22830;BME280;11581;51.250;6.778;2022-07-29T12:55:51;101128.31;;;33.96;28.00
22830;BME280;11581;51.250;6.778;2022-07-29T12:58:32;101092.03;;;34.03;28.20
22830;BME280;11581;51.250;6.778;2022-07-29T13:01:05;100978.56;;;33.56;26.97
22830;BME280;11581;51.250;6.778;2022-07-29T13:03:44;101136.50;;;34.77;26.65
22830;BME280;11581;51.250;6.778;2022-07-29T13:06:33;101143.41;;;34.98;26.54
22830;BME280;11581;51.250;6.778;2022-07-29T13:09:03;101092.06;;;34.87;26.30